createdAt,value
2022-09-01T00:00:32.866Z,18.67
2022-09-01T00:03:03.582Z,19.03
2022-09-01T00:05:33.169Z,20.63
2022-09-01T00:08:02.967Z,17.63
2022-09-01T00:10:31.468Z,21.03
2022-09-01T00:13:00.039Z,20.27
2022-09-01T00:15:28.708Z,19.37
2022-09-01T00:17:57.324Z,19.70
2022-09-01T00:20:25.803Z,20.33
2022-09-01T00:22:54.230Z,18.63
2022-09-01T00:25:27.914Z,20.23
2022-09-01T00:27:59.429Z,21.17
2022-09-01T00:30:28.859Z,21.10
2022-09-01T00:32:57.377Z,19.13
2022-09-01T00:35:25.927Z,22.17
2022-09-01T00:37:54.301Z,22.90
2022-09-01T00:40:24.285Z,19.50
2022-09-01T00:42:53.792Z,18.93
2022-09-01T00:45:23.655Z,22.77
2022-09-01T00:47:52.078Z,22.33
2022-09-01T00:50:20.721Z,21.73
2022-09-01T00:52:52.056Z,21.07
2022-09-01T00:55:24.387Z,20.50
2022-09-01T00:57:57.557Z,22.30
2022-09-01T01:00:28.229Z,21.40
2022-09-01T01:02:56.954Z,22.40
2022-09-01T01:05:27.906Z,22.40
2022-09-01T01:07:56.957Z,22.40
2022-09-01T01:10:26.788Z,24.27
2022-09-01T01:12:56.545Z,23.13
2022-09-01T01:15:24.975Z,22.90
2022-09-01T01:17:53.366Z,26.47
2022-09-01T01:20:40.937Z,25.03
2022-09-01T01:23:13.897Z,25.97
2022-09-01T01:25:45.237Z,24.40
2022-09-01T01:28:19.698Z,23.83
2022-09-01T01:30:53.432Z,22.70
2022-09-01T01:33:22.552Z,25.20
2022-09-01T01:35:52.635Z,23.60
2022-09-01T01:38:22.933Z,25.77
2022-09-01T01:40:54.886Z,25.73
2022-09-01T01:43:26.362Z,22.23
2022-09-01T01:45:56.814Z,24.23
2022-09-01T01:48:34.481Z,24.00
2022-09-01T01:51:14.025Z,23.90
2022-09-01T01:53:42.971Z,24.43
2022-09-01T01:56:12.925Z,23.73
2022-09-01T01:58:41.649Z,24.30
2022-09-01T02:01:12.760Z,24.50
2022-09-01T02:03:41.511Z,23.90
2022-09-01T02:06:12.082Z,24.60
2022-09-01T02:08:42.220Z,23.97
2022-09-01T02:11:13.243Z,24.80
2022-09-01T02:13:43.020Z,24.50
2022-09-01T02:16:13.236Z,26.50
2022-09-01T02:18:44.502Z,26.57
2022-09-01T02:21:18.540Z,27.10
2022-09-01T02:23:48.285Z,22.00
2022-09-01T02:26:19.213Z,24.60
2022-09-01T02:28:55.263Z,25.60
2022-09-01T02:31:28.897Z,26.17
2022-09-01T02:34:02.308Z,25.10
2022-09-01T02:36:32.904Z,25.90
2022-09-01T02:39:01.778Z,26.63
2022-09-01T02:41:32.342Z,26.67
2022-09-01T02:44:02.685Z,24.27
2022-09-01T02:46:34.623Z,25.43
2022-09-01T02:49:05.413Z,24.00
2022-09-01T02:51:34.537Z,23.40
2022-09-01T02:54:04.617Z,24.43
2022-09-01T02:56:34.504Z,26.10
2022-09-01T02:59:05.694Z,24.87
2022-09-01T03:01:34.873Z,22.73
2022-09-01T03:04:05.698Z,26.13
2022-09-01T03:06:36.396Z,25.37
2022-09-01T03:09:07.463Z,27.33
2022-09-01T03:11:37.421Z,24.27
2022-09-01T03:14:07.633Z,26.53
2022-09-01T03:16:36.173Z,26.23
2022-09-01T03:19:07.434Z,27.73
2022-09-01T03:21:36.073Z,27.37
2022-09-01T03:24:05.193Z,27.80
2022-09-01T03:26:33.633Z,27.07
2022-09-01T03:29:01.988Z,27.63
2022-09-01T03:31:32.736Z,27.77
2022-09-01T03:34:04.031Z,28.07
2022-09-01T03:36:36.527Z,29.53
2022-09-01T03:39:05.317Z,27.97
2022-09-01T03:41:38.044Z,29.93
2022-09-01T03:44:08.518Z,28.00
2022-09-01T03:46:40.420Z,28.97
2022-09-01T03:49:12.308Z,28.40
2022-09-01T03:51:42.821Z,27.87
2022-09-01T03:54:11.206Z,25.67
2022-09-01T03:56:41.357Z,25.53
2022-09-01T03:59:17.153Z,26.23
2022-09-01T04:01:55.713Z,26.03
2022-09-01T04:04:24.644Z,26.50
2022-09-01T04:06:53.291Z,25.80
2022-09-01T04:09:21.680Z,24.30
2022-09-01T04:11:50.826Z,26.30
2022-09-01T04:14:19.512Z,26.47
2022-09-01T04:17:08.863Z,26.13
2022-09-01T04:19:39.497Z,28.70
2022-09-01T04:22:13.536Z,27.47
2022-09-01T04:24:46.189Z,24.77
2022-09-01T04:27:18.084Z,24.77
2022-09-01T04:29:48.485Z,26.37
2022-09-01T04:32:22.046Z,26.97
2022-09-01T04:34:54.152Z,27.47
2022-09-01T04:37:23.899Z,25.83
2022-09-01T04:39:57.532Z,24.57
2022-09-01T04:42:29.161Z,27.50
2022-09-01T04:45:10.045Z,26.67
2022-09-01T04:47:42.946Z,29.07
2022-09-01T04:50:17.329Z,24.80
2022-09-01T04:53:07.252Z,23.87
2022-09-01T04:55:54.925Z,23.83
2022-09-01T04:58:27.255Z,23.97
2022-09-01T05:00:56.972Z,24.90
2022-09-01T05:03:27.121Z,24.43
2022-09-01T05:06:03.962Z,23.77
2022-09-01T05:08:35.375Z,22.07
2022-09-01T05:11:08.072Z,25.53
2022-09-01T05:13:43.377Z,24.27
2022-09-01T05:16:15.798Z,22.93
2022-09-01T05:18:49.042Z,22.87
2022-09-01T05:21:24.507Z,20.40
2022-09-01T05:23:54.215Z,20.90
2022-09-01T05:26:27.675Z,21.83
2022-09-01T05:29:00.545Z,24.30
2022-09-01T05:31:37.787Z,23.33
2022-09-01T05:34:09.725Z,23.80
2022-09-01T05:36:40.210Z,22.63
2022-09-01T05:39:09.775Z,24.33
2022-09-01T05:41:39.845Z,25.90
2022-09-01T05:44:09.363Z,23.37
2022-09-01T05:46:39.902Z,23.33
2022-09-01T05:49:16.181Z,22.57
2022-09-01T05:51:50.693Z,21.47
2022-09-01T05:54:23.152Z,21.13
2022-09-01T05:56:53.632Z,19.93
2022-09-01T05:59:26.602Z,20.30
2022-09-01T06:02:02.816Z,24.17
2022-09-01T06:04:38.843Z,23.53
2022-09-01T06:07:08.918Z,22.07
2022-09-01T06:09:40.435Z,21.10
2022-09-01T06:12:09.799Z,19.30
2022-09-01T06:14:38.319Z,19.87
2022-09-01T06:17:10.116Z,20.80
2022-09-01T06:19:41.686Z,22.10
2022-09-01T06:22:10.703Z,20.30
2022-09-01T06:24:40.933Z,20.77
2022-09-01T06:27:14.756Z,18.60
2022-09-01T06:29:43.433Z,21.03
2022-09-01T06:32:13.151Z,19.37
2022-09-01T06:34:44.523Z,18.10
2022-09-01T06:37:14.080Z,15.87
2022-09-01T06:39:45.842Z,17.97
2022-09-01T06:42:15.658Z,18.40
2022-09-01T06:44:49.936Z,19.90
2022-09-01T06:47:19.449Z,19.37
2022-09-01T06:49:51.815Z,17.23
2022-09-01T06:52:23.641Z,18.97
2022-09-01T06:54:53.993Z,19.73
2022-09-01T07:00:18.869Z,18.63
2022-09-01T07:02:50.213Z,20.77
2022-09-01T07:06:02.143Z,20.00
2022-09-01T07:12:35.256Z,16.53
2022-09-01T07:17:53.566Z,15.57
2022-09-01T07:20:24.621Z,15.70
2022-09-01T07:23:04.462Z,12.27
2022-09-01T07:28:37.115Z,10.50
2022-09-01T07:39:51.425Z,8.23
2022-09-01T07:43:06.688Z,8.80
2022-09-01T07:49:29.559Z,8.73
2022-09-01T07:51:53.113Z,9.50
2022-09-01T07:54:23.976Z,9.60
2022-09-01T07:56:55.492Z,9.60
2022-09-01T07:59:26.715Z,9.57
2022-09-01T08:02:05.688Z,9.50
2022-09-01T08:04:34.544Z,9.57
2022-09-01T08:07:03.468Z,9.73
2022-09-01T08:09:38.059Z,10.85
2022-09-01T08:12:10.338Z,9.73
2022-09-01T08:14:41.756Z,10.90
2022-09-01T08:17:18.255Z,11.77
2022-09-01T08:20:02.096Z,10.83
2022-09-01T08:22:48.365Z,10.80
2022-09-01T08:25:24.747Z,11.93
2022-09-01T08:28:00.363Z,10.90
2022-09-01T08:30:30.049Z,12.23
2022-09-01T08:32:59.103Z,11.23
2022-09-01T08:35:29.496Z,11.10
2022-09-01T08:38:00.102Z,11.40
2022-09-01T08:40:30.407Z,11.83
2022-09-01T08:43:04.858Z,11.20
2022-09-01T08:45:35.087Z,11.83
2022-09-01T08:51:03.180Z,12.13
2022-09-01T08:53:58.760Z,13.10
2022-09-01T08:56:27.644Z,10.85
2022-09-01T09:01:50.585Z,11.40
2022-09-01T09:04:27.350Z,10.20
2022-09-01T09:06:57.618Z,10.43
2022-09-01T09:09:33.488Z,10.70
2022-09-01T09:12:13.307Z,10.47
2022-09-01T09:15:05.062Z,9.87
2022-09-01T09:17:36.750Z,10.23
2022-09-01T09:20:05.948Z,10.20
2022-09-01T09:22:34.777Z,8.63
2022-09-01T09:25:09.232Z,9.82
2022-09-01T09:27:38.924Z,9.07
2022-09-01T09:30:11.842Z,10.32
2022-09-01T09:35:38.561Z,9.52
2022-09-01T09:38:21.552Z,9.88
2022-09-01T09:43:49.346Z,10.00
2022-09-01T09:46:28.422Z,10.07
2022-09-01T09:49:10.838Z,9.82
2022-09-01T09:51:39.348Z,9.57
2022-09-01T09:54:15.120Z,9.60
2022-09-01T09:56:45.413Z,9.05
2022-09-01T09:59:29.328Z,10.23
2022-09-01T10:02:28.294Z,8.52
2022-09-01T10:04:57.331Z,9.27
2022-09-01T10:07:33.808Z,7.97
2022-09-01T10:10:03.831Z,8.50
2022-09-01T10:12:33.166Z,7.65
2022-09-01T10:15:07.004Z,7.95
2022-09-01T10:17:43.626Z,9.30
2022-09-01T10:20:14.751Z,8.55
2022-09-01T10:22:44.754Z,7.40
2022-09-01T10:25:15.716Z,8.77
2022-09-01T10:27:47.192Z,8.27
2022-09-01T10:30:19.804Z,7.47
2022-09-01T10:32:55.604Z,7.45
2022-09-01T10:35:26.936Z,8.00
2022-09-01T10:37:58.044Z,9.00
2022-09-01T10:40:43.348Z,9.32
2022-09-01T10:43:36.359Z,9.35
2022-09-01T10:46:38.667Z,8.98
2022-09-01T10:49:25.241Z,8.32
2022-09-01T10:51:57.113Z,7.38
2022-09-01T10:54:51.520Z,6.93
2022-09-01T10:57:30.912Z,7.13
2022-09-01T11:00:35.100Z,5.32
2022-09-01T11:03:42.197Z,5.78
2022-09-01T11:06:13.025Z,6.13
2022-09-01T11:08:50.855Z,6.55
2022-09-01T11:11:28.838Z,5.78
2022-09-01T11:13:58.875Z,7.78
2022-09-01T11:19:33.884Z,6.47
2022-09-01T11:22:17.330Z,7.13
2022-09-01T11:24:53.424Z,8.30
2022-09-01T11:27:43.177Z,7.60
2022-09-01T11:30:11.732Z,7.03
2022-09-01T11:32:46.291Z,7.20
2022-09-01T11:35:18.135Z,7.80
2022-09-01T11:37:51.201Z,6.95
2022-09-01T11:40:22.471Z,7.40
2022-09-01T11:42:54.352Z,6.65
2022-09-01T11:45:28.318Z,6.50
2022-09-01T11:47:58.976Z,5.93
2022-09-01T11:50:28.632Z,6.05
2022-09-01T11:53:04.775Z,4.60
2022-09-01T11:55:35.671Z,3.78
2022-09-01T11:58:04.881Z,3.47
2022-09-01T12:00:38.429Z,3.40
2022-09-01T12:03:07.853Z,3.65
2022-09-01T12:05:38.760Z,2.63
2022-09-01T12:08:14.486Z,2.65
2022-09-01T12:10:45.021Z,3.05
2022-09-01T12:13:14.284Z,3.30
2022-09-01T12:16:07.078Z,3.72
2022-09-01T12:18:35.042Z,2.97
2022-09-01T12:21:04.385Z,3.17
2022-09-01T12:23:35.361Z,3.28
2022-09-01T12:26:04.943Z,3.40
2022-09-01T12:28:34.344Z,2.95
2022-09-01T12:31:07.379Z,2.78
2022-09-01T12:33:37.261Z,3.35
2022-09-01T12:36:15.621Z,3.00
2022-09-01T12:38:45.364Z,2.80
2022-09-01T12:41:28.909Z,2.80
2022-09-01T12:43:57.575Z,3.10
2022-09-01T12:46:42.380Z,2.70
2022-09-01T12:49:20.385Z,3.40
2022-09-01T12:51:48.864Z,3.25
2022-09-01T12:54:26.145Z,2.80
2022-09-01T12:56:55.845Z,3.60
2022-09-01T12:59:37.378Z,3.20
2022-09-01T13:02:25.037Z,3.13
2022-09-01T13:04:53.559Z,3.42
2022-09-01T13:07:21.929Z,3.55
2022-09-01T13:09:51.662Z,3.65
2022-09-01T13:12:21.094Z,3.30
2022-09-01T13:14:49.783Z,3.28
2022-09-01T13:17:19.637Z,3.80
2022-09-01T13:19:48.014Z,3.60
2022-09-01T13:22:16.419Z,3.35
2022-09-01T13:24:44.800Z,3.40
2022-09-01T13:27:21.347Z,3.20
2022-09-01T13:29:50.359Z,3.30
2022-09-01T13:32:20.501Z,2.80
2022-09-01T13:34:50.621Z,3.10
2022-09-01T13:37:20.203Z,3.00
2022-09-01T13:39:48.729Z,3.20
2022-09-01T13:42:19.007Z,2.83
2022-09-01T13:44:49.685Z,2.47
2022-09-01T13:47:35.416Z,2.92
2022-09-01T13:50:11.229Z,2.67
2022-09-01T13:52:41.099Z,2.47
2022-09-01T13:55:10.137Z,2.75
2022-09-01T13:57:39.929Z,2.38
2022-09-01T14:00:10.758Z,2.40
2022-09-01T14:02:39.408Z,2.30
2022-09-01T14:05:08.227Z,2.22
2022-09-01T14:07:37.145Z,2.40
2022-09-01T14:10:07.329Z,2.20
2022-09-01T14:12:35.718Z,2.22
2022-09-01T14:15:11.941Z,2.20
2022-09-01T14:17:43.522Z,2.30
2022-09-01T14:20:13.816Z,2.30
2022-09-01T14:22:42.390Z,2.10
2022-09-01T14:25:12.119Z,2.38
2022-09-01T14:27:42.590Z,2.22
2022-09-01T14:30:16.235Z,2.30
2022-09-01T14:32:44.973Z,2.40
2022-09-01T14:35:13.451Z,2.20
2022-09-01T14:37:42.052Z,2.50
2022-09-01T14:40:14.810Z,2.08
2022-09-01T14:42:47.623Z,2.22
2022-09-01T14:45:18.623Z,2.20
2022-09-01T14:47:47.316Z,2.38
2022-09-01T14:50:19.893Z,2.10
2022-09-01T14:52:52.803Z,2.30
2022-09-01T14:55:21.720Z,2.40
2022-09-01T14:57:50.096Z,2.42
2022-09-01T15:00:19.947Z,2.20
2022-09-01T15:02:48.502Z,2.42
2022-09-01T15:05:17.188Z,2.05
2022-09-01T15:07:45.693Z,2.15
2022-09-01T15:10:16.076Z,2.15
2022-09-01T15:12:53.688Z,2.03
2022-09-01T15:15:23.932Z,2.30
2022-09-01T15:17:52.595Z,2.10
2022-09-01T15:20:38.892Z,2.08
2022-09-01T15:23:07.527Z,2.03
2022-09-01T15:25:35.897Z,2.22
2022-09-01T15:28:04.516Z,2.00
2022-09-01T15:30:35.315Z,2.33
2022-09-01T15:33:03.686Z,1.80
2022-09-01T15:35:32.474Z,2.30
2022-09-01T15:38:01.330Z,2.03
2022-09-01T15:40:30.124Z,1.80
2022-09-01T15:43:00.076Z,1.80
2022-09-01T15:45:29.824Z,2.08
2022-09-01T15:47:59.583Z,1.90
2022-09-01T15:50:28.491Z,1.80
2022-09-01T15:52:57.761Z,1.90
2022-09-01T15:55:26.944Z,1.52
2022-09-01T15:57:55.477Z,1.70
2022-09-01T16:00:24.738Z,1.70
2022-09-01T16:02:55.536Z,1.80
2022-09-01T16:05:27.291Z,1.90
2022-09-01T16:10:32.456Z,1.75
2022-09-01T16:13:04.143Z,1.63
2022-09-01T16:15:32.723Z,1.70
2022-09-01T16:18:12.899Z,1.70
2022-09-01T16:20:47.606Z,1.50
2022-09-01T16:23:17.433Z,1.52
2022-09-01T16:25:46.282Z,1.40
2022-09-01T16:28:24.574Z,1.40
2022-09-01T16:30:54.294Z,1.60
2022-09-01T16:33:22.690Z,1.60
2022-09-01T16:36:00.305Z,1.52
2022-09-01T16:38:34.667Z,1.42
2022-09-01T16:41:05.611Z,1.38
2022-09-01T16:43:37.069Z,1.50
2022-09-01T16:46:13.325Z,1.40
2022-09-01T16:48:47.354Z,1.50
2022-09-01T16:51:18.664Z,1.58
2022-09-01T16:54:05.397Z,1.67
2022-09-01T16:56:35.771Z,1.65
2022-09-01T17:01:52.417Z,1.60
2022-09-01T17:04:24.382Z,1.70
2022-09-01T17:06:58.281Z,1.80
2022-09-01T17:09:31.272Z,1.88
2022-09-01T17:12:05.995Z,1.70
2022-09-01T17:14:37.059Z,1.63
2022-09-01T17:17:08.601Z,1.50
2022-09-01T17:19:38.200Z,1.70
2022-09-01T17:22:08.651Z,1.50
2022-09-01T17:24:38.598Z,1.90
2022-09-01T17:27:10.968Z,1.55
2022-09-01T17:29:44.724Z,1.40
2022-09-01T17:32:18.313Z,1.52
2022-09-01T17:34:49.875Z,1.63
2022-09-01T17:37:26.423Z,1.40
2022-09-01T17:40:03.463Z,1.98
2022-09-01T17:42:36.557Z,1.33
2022-09-01T17:45:10.062Z,1.40
2022-09-01T17:47:43.420Z,1.55
2022-09-01T17:50:16.946Z,1.52
2022-09-01T17:52:53.764Z,1.60
2022-09-01T17:55:27.346Z,1.48
2022-09-01T17:58:00.787Z,1.63
2022-09-01T18:00:30.216Z,1.58
2022-09-01T18:03:10.284Z,1.77
2022-09-01T18:05:41.188Z,1.60
2022-09-01T18:08:13.784Z,1.40
2022-09-01T18:10:43.357Z,1.48
2022-09-01T18:13:25.835Z,1.77
2022-09-01T18:16:07.203Z,1.42
2022-09-01T18:18:36.987Z,2.15
2022-09-01T18:21:07.065Z,1.90
2022-09-01T18:23:39.268Z,1.92
2022-09-01T18:26:11.539Z,2.88
2022-09-01T18:28:39.948Z,2.20
2022-09-01T18:31:11.808Z,1.80
2022-09-01T18:33:45.669Z,2.10
2022-09-01T18:36:20.027Z,2.08
2022-09-01T18:38:52.572Z,1.88
2022-09-01T18:41:35.816Z,1.60
2022-09-01T18:44:06.250Z,1.95
2022-09-01T18:46:38.649Z,1.70
2022-09-01T18:49:10.874Z,1.90
2022-09-01T18:51:54.067Z,1.63
2022-09-01T18:54:26.364Z,1.90
2022-09-01T18:56:57.092Z,1.73
2022-09-01T18:59:37.176Z,2.30
2022-09-01T19:02:11.390Z,1.77
2022-09-01T19:04:42.314Z,2.00
2022-09-01T19:07:16.750Z,1.77
2022-09-01T19:09:52.188Z,1.77
2022-09-01T19:12:24.150Z,1.97
2022-09-01T19:14:57.085Z,1.75
2022-09-01T19:17:49.467Z,1.50
2022-09-01T19:20:19.703Z,2.10
2022-09-01T19:22:51.263Z,1.80
2022-09-01T19:25:40.010Z,2.00
2022-09-01T19:28:13.052Z,1.73
2022-09-01T19:30:47.970Z,1.73
2022-09-01T19:33:18.169Z,1.83
2022-09-01T19:35:48.542Z,2.00
2022-09-01T19:38:20.070Z,1.70
2022-09-01T19:40:52.507Z,1.90
2022-09-01T19:43:21.177Z,1.63
2022-09-01T19:45:59.415Z,1.70
2022-09-01T19:48:31.358Z,1.60
2022-09-01T19:51:04.979Z,1.70
2022-09-01T19:53:45.964Z,1.80
2022-09-01T19:56:17.992Z,1.80
2022-09-01T19:58:49.965Z,1.87
2022-09-01T20:01:21.099Z,1.30
2022-09-01T20:03:53.568Z,1.80
2022-09-01T20:08:59.894Z,1.87
2022-09-01T20:11:35.051Z,2.00
2022-09-01T20:14:09.143Z,1.67
2022-09-01T20:16:40.218Z,1.70
2022-09-01T20:19:11.505Z,1.90
2022-09-01T20:21:41.650Z,1.83
2022-09-01T20:24:13.222Z,1.47
2022-09-01T20:26:45.143Z,2.20
2022-09-01T20:29:16.650Z,1.70
2022-09-01T20:31:46.635Z,2.00
2022-09-01T20:34:17.094Z,1.83
2022-09-01T20:36:47.289Z,2.00
2022-09-01T20:39:35.545Z,2.00
2022-09-01T20:42:08.009Z,1.87
2022-09-01T20:44:44.960Z,2.20
2022-09-01T20:47:13.622Z,1.73
2022-09-01T20:49:42.392Z,2.00
2022-09-01T20:52:14.391Z,2.00
2022-09-01T20:54:46.695Z,1.80
2022-09-01T20:57:19.798Z,1.93
2022-09-01T20:59:51.707Z,2.27
2022-09-01T21:02:28.818Z,2.10
2022-09-01T21:05:06.192Z,1.93
2022-09-01T21:07:38.066Z,2.00
2022-09-01T21:10:11.135Z,1.83
2022-09-01T21:12:44.220Z,2.17
2022-09-01T21:15:20.877Z,2.20
2022-09-01T21:17:57.353Z,1.90
2022-09-01T21:20:30.841Z,2.33
2022-09-01T21:22:59.248Z,2.00
2022-09-01T21:25:27.704Z,2.47
2022-09-01T21:27:59.603Z,2.10
2022-09-01T21:30:31.633Z,2.10
2022-09-01T21:33:00.133Z,2.13
2022-09-01T21:35:28.536Z,2.03
2022-09-01T21:37:57.997Z,2.30
2022-09-01T21:40:31.212Z,2.27
2022-09-01T21:43:03.116Z,2.37
2022-09-01T21:45:32.174Z,2.30
2022-09-01T21:48:02.876Z,2.20
2022-09-01T21:50:31.777Z,2.17
2022-09-01T21:53:00.175Z,2.30
2022-09-01T21:55:28.973Z,2.20
2022-09-01T21:57:57.572Z,2.30
2022-09-01T22:00:31.607Z,2.17
2022-09-01T22:03:04.074Z,2.17
2022-09-01T22:05:35.110Z,2.60
2022-09-01T22:08:15.837Z,2.57
2022-09-01T22:10:45.614Z,2.37
2022-09-01T22:13:15.801Z,2.60
2022-09-01T22:15:46.733Z,2.27
2022-09-01T22:18:15.523Z,2.50
2022-09-01T22:20:44.307Z,2.40
2022-09-01T22:23:13.586Z,2.17
2022-09-01T22:25:43.367Z,2.60
2022-09-01T22:28:16.140Z,2.40
2022-09-01T22:30:50.850Z,2.60
2022-09-01T22:33:20.009Z,2.40
2022-09-01T22:35:49.575Z,2.57
2022-09-01T22:38:18.640Z,2.60
2022-09-01T22:40:47.847Z,2.47
2022-09-01T22:43:18.242Z,2.53
2022-09-01T22:45:47.345Z,2.43
2022-09-01T22:48:17.663Z,2.27
2022-09-01T22:50:46.465Z,2.47
2022-09-01T22:53:15.415Z,2.30
2022-09-01T22:55:45.041Z,1.90
2022-09-01T22:58:14.160Z,2.50
2022-09-01T23:00:47.840Z,2.60
2022-09-01T23:03:17.975Z,2.30
2022-09-01T23:05:54.098Z,2.50
2022-09-01T23:08:22.500Z,2.77
2022-09-01T23:10:51.030Z,2.47
2022-09-01T23:13:19.590Z,2.40
2022-09-01T23:15:48.049Z,2.90
2022-09-01T23:18:20.298Z,2.70
2022-09-01T23:20:48.679Z,2.63
2022-09-01T23:23:17.223Z,2.57
2022-09-01T23:25:47.057Z,2.60
2022-09-01T23:28:18.289Z,2.70
2022-09-01T23:30:49.834Z,2.90
2022-09-01T23:33:20.625Z,2.67
2022-09-01T23:35:50.056Z,2.70
2022-09-01T23:38:22.665Z,2.80
2022-09-01T23:40:52.964Z,3.17
2022-09-01T23:43:25.804Z,3.10
2022-09-01T23:45:55.268Z,3.70
2022-09-01T23:48:25.408Z,3.67
2022-09-01T23:50:54.753Z,3.33
2022-09-01T23:53:23.897Z,3.17
2022-09-01T23:55:53.821Z,3.20
2022-09-01T23:58:23.075Z,3.20
